createdAt,value
2019-05-29T00:02:21.069Z,97161.77
2019-05-29T00:12:22.078Z,97165.11
2019-05-29T00:22:23.094Z,97170.52
2019-05-29T00:32:24.205Z,97178.19
2019-05-29T00:42:25.327Z,97188.00
2019-05-29T00:52:26.619Z,97193.11
2019-05-29T01:02:27.739Z,97196.89
2019-05-29T01:12:29.041Z,97199.62
2019-05-29T01:22:30.321Z,97220.67
2019-05-29T01:32:31.386Z,97225.84
2019-05-29T01:42:32.446Z,97232.73
2019-05-29T01:52:33.458Z,97234.94
2019-05-29T02:02:34.580Z,97254.56
2019-05-29T02:12:35.712Z,97259.52
2019-05-29T02:22:36.770Z,97268.81
2019-05-29T02:32:38.022Z,97278.61
2019-05-29T02:42:39.024Z,97287.37
2019-05-29T02:52:40.560Z,97297.44
2019-05-29T03:02:41.670Z,97309.84
2019-05-29T03:12:43.195Z,97321.98
2019-05-29T03:22:44.308Z,97329.44
2019-05-29T03:32:48.298Z,97340.55
2019-05-29T03:42:48.396Z,97357.48
2019-05-29T03:52:49.609Z,97376.84
2019-05-29T04:02:50.610Z,97387.91
2019-05-29T04:12:51.639Z,97390.70
2019-05-29T04:22:54.694Z,97410.77
2019-05-29T04:32:55.719Z,97410.36
2019-05-29T04:42:56.721Z,97423.41
2019-05-29T04:52:57.741Z,97441.14
2019-05-29T05:02:58.756Z,97456.52
2019-05-29T05:12:59.988Z,97469.33
2019-05-29T05:23:01.398Z,97478.73
2019-05-29T05:33:02.833Z,97484.38
2019-05-29T05:43:03.961Z,97515.47
2019-05-29T05:53:05.041Z,97515.47
2019-05-29T06:03:06.393Z,97515.53
2019-05-29T06:13:07.538Z,97528.18
2019-05-29T06:23:08.575Z,97538.34
2019-05-29T06:33:09.729Z,97545.91
2019-05-29T06:43:20.068Z,97550.31
2019-05-29T06:53:22.318Z,97549.68
2019-05-29T07:03:23.426Z,97559.22
2019-05-29T07:13:24.668Z,97568.19
2019-05-29T07:23:25.729Z,97585.27
2019-05-29T07:33:27.439Z,97605.66
2019-05-29T07:43:28.569Z,97624.51
2019-05-29T07:53:29.882Z,97636.77
2019-05-29T08:03:32.007Z,97648.44
2019-05-29T08:13:33.017Z,97652.31
2019-05-29T08:23:34.142Z,97644.00
2019-05-29T08:33:35.148Z,97656.29
2019-05-29T08:43:36.197Z,97665.38
2019-05-29T08:53:37.230Z,97673.33
2019-05-29T09:03:38.257Z,97681.27
2019-05-29T09:13:39.313Z,97696.53
2019-05-29T09:23:40.904Z,97689.76
2019-05-29T09:33:42.539Z,97688.33
2019-05-29T09:43:57.689Z,97686.77
2019-05-29T09:53:47.056Z,97684.42
2019-05-29T10:03:48.304Z,97701.88
2019-05-29T10:13:49.346Z,97684.27
2019-05-29T10:23:50.532Z,97705.61
2019-05-29T10:33:52.405Z,97701.67
2019-05-29T10:43:53.496Z,97717.41
2019-05-29T10:53:57.514Z,97714.63
2019-05-29T11:03:57.741Z,97707.04
2019-05-29T11:13:58.768Z,97713.02
2019-05-29T11:23:59.858Z,97713.93
2019-05-29T11:34:00.921Z,97727.97
2019-05-29T11:44:03.193Z,97748.38
2019-05-29T11:54:04.446Z,97765.06
2019-05-29T12:04:22.871Z,97795.02
2019-05-29T12:14:09.445Z,97801.56
2019-05-29T12:24:10.567Z,97791.63
2019-05-29T12:34:18.898Z,97808.03
2019-05-29T12:44:14.479Z,97813.20
2019-05-29T12:54:15.543Z,97809.77
2019-05-29T13:04:16.567Z,97820.90
2019-05-29T13:14:17.614Z,97822.78
2019-05-29T13:24:19.106Z,97823.29
2019-05-29T13:34:21.364Z,97825.74
2019-05-29T13:44:22.494Z,97825.09
2019-05-29T13:54:23.546Z,97827.78
2019-05-29T14:04:26.676Z,97819.78
2019-05-29T14:14:27.701Z,97826.42
2019-05-29T14:24:30.382Z,97848.95
2019-05-29T14:34:31.789Z,97840.14
2019-05-29T14:44:32.951Z,97867.44
2019-05-29T14:54:41.847Z,97862.62
2019-05-29T15:04:38.729Z,97860.56
2019-05-29T15:14:39.873Z,97871.34
2019-05-29T15:24:58.845Z,97880.72
2019-05-29T15:34:43.891Z,97886.30
2019-05-29T15:44:44.931Z,97898.63
2019-05-29T15:54:46.015Z,97915.03
2019-05-29T16:04:48.341Z,97925.64
2019-05-29T16:14:49.698Z,97930.87
2019-05-29T16:24:50.761Z,97940.01
2019-05-29T16:34:51.883Z,97946.01
2019-05-29T16:55:07.357Z,97963.14
2019-05-29T17:05:08.789Z,97974.56
2019-05-29T17:15:15.068Z,97987.68
2019-05-29T17:25:16.809Z,97989.48
2019-05-29T17:35:18.982Z,97994.32
2019-05-29T17:45:23.944Z,98009.66
2019-05-29T17:55:24.904Z,98014.24
2019-05-29T18:05:26.754Z,98030.53
2019-05-29T18:15:28.020Z,98042.06
2019-05-29T18:25:29.058Z,98053.81
2019-05-29T18:35:30.308Z,98065.09
2019-05-29T18:45:31.447Z,98077.83
2019-05-29T18:55:33.148Z,98079.59
2019-05-29T19:05:34.256Z,98100.30
2019-05-29T19:15:35.270Z,98108.02
2019-05-29T19:25:36.286Z,98120.95
2019-05-29T19:35:37.411Z,98144.42
2019-05-29T19:45:38.544Z,98164.84
2019-05-29T19:55:39.608Z,98191.08
2019-05-29T20:05:40.627Z,98199.00
2019-05-29T20:15:41.845Z,98210.08
2019-05-29T20:25:42.832Z,98218.05
2019-05-29T20:35:43.859Z,98229.63
2019-05-29T20:45:44.865Z,98241.98
2019-05-29T20:55:45.991Z,98235.80
2019-05-29T21:05:47.126Z,98249.70
2019-05-29T21:15:48.126Z,98271.37
2019-05-29T21:25:49.160Z,98277.61
2019-05-29T21:35:50.188Z,98279.89
2019-05-29T21:45:51.185Z,98277.37
2019-05-29T21:55:52.245Z,98283.39
2019-05-29T22:05:53.477Z,98290.64
2019-05-29T22:15:56.780Z,98291.86
2019-05-29T22:25:59.404Z,98292.58
2019-05-29T22:36:01.767Z,98297.55
2019-05-29T22:46:03.478Z,98303.88
2019-05-29T22:56:04.639Z,98306.70
2019-05-29T23:06:05.880Z,98306.01
2019-05-29T23:16:06.997Z,98294.73
2019-05-29T23:26:08.111Z,98299.03
2019-05-29T23:36:09.918Z,98315.08
2019-05-29T23:46:11.070Z,98316.19
2019-05-29T23:56:12.285Z,98313.22
